sensor_id;sensor_type;location;lat;lon;timestamp;temperature;humidity
52979;DHT22;63430;53.186;6.598;2023-01-20T00:00:16;0.10;99.90
52979;DHT22;63430;53.186;6.598;2023-01-20T00:02:22;0.10;99.90
52979;DHT22;63430;53.186;6.598;2023-01-20T00:04:25;0.10;99.90
52979;DHT22;63430;53.186;6.598;2023-01-20T00:06:27;0.00;99.90
52979;DHT22;63430;53.186;6.598;2023-01-20T00:08:30;0.10;99.90
52979;DHT22;63430;53.186;6.598;2023-01-20T00:10:32;0.00;99.90
52979;DHT22;63430;53.186;6.598;2023-01-20T00:12:35;0.00;99.90
52979;DHT22;63430;53.186;6.598;2023-01-20T00:14:37;0.00;99.90
52979;DHT22;63430;53.186;6.598;2023-01-20T00:16:40;0.00;99.90
52979;DHT22;63430;53.186;6.598;2023-01-20T00:18:45;0.00;99.90
52979;DHT22;63430;53.186;6.598;2023-01-20T00:20:48;0.00;99.90
52979;DHT22;63430;53.186;6.598;2023-01-20T00:22:51;0.00;99.90
52979;DHT22;63430;53.186;6.598;2023-01-20T00:24:53;0.00;99.90
52979;DHT22;63430;53.186;6.598;2023-01-20T00:26:56;0.00;99.90
52979;DHT22;63430;53.186;6.598;2023-01-20T00:28:58;0.00;99.90
52979;DHT22;63430;53.186;6.598;2023-01-20T00:31:12;0.00;99.90
52979;DHT22;63430;53.186;6.598;2023-01-20T00:33:15;0.10;99.90
52979;DHT22;63430;53.186;6.598;2023-01-20T00:35:20;0.00;99.90
52979;DHT22;63430;53.186;6.598;2023-01-20T00:37:23;0.00;99.90
52979;DHT22;63430;53.186;6.598;2023-01-20T00:39:26;0.00;99.90
52979;DHT22;63430;53.186;6.598;2023-01-20T00:41:28;0.00;99.90
52979;DHT22;63430;53.186;6.598;2023-01-20T00:43:31;0.00;99.90
52979;DHT22;63430;53.186;6.598;2023-01-20T00:45:35;0.00;99.90
52979;DHT22;63430;53.186;6.598;2023-01-20T00:47:37;0.00;99.90
52979;DHT22;63430;53.186;6.598;2023-01-20T00:49:42;0.00;99.90
52979;DHT22;63430;53.186;6.598;2023-01-20T00:51:47;0.00;99.90
52979;DHT22;63430;53.186;6.598;2023-01-20T00:53:50;0.50;99.90
52979;DHT22;63430;53.186;6.598;2023-01-20T00:55:53;0.10;99.90
52979;DHT22;63430;53.186;6.598;2023-01-20T00:57:56;0.00;99.90
52979;DHT22;63430;53.186;6.598;2023-01-20T00:59:58;0.00;99.90
52979;DHT22;63430;53.186;6.598;2023-01-20T01:02:01;0.00;99.90
52979;DHT22;63430;53.186;6.598;2023-01-20T01:04:04;0.00;99.90
52979;DHT22;63430;53.186;6.598;2023-01-20T01:06:08;0.10;99.90
52979;DHT22;63430;53.186;6.598;2023-01-20T01:08:14;0.10;99.90
52979;DHT22;63430;53.186;6.598;2023-01-20T01:10:21;0.10;99.90
52979;DHT22;63430;53.186;6.598;2023-01-20T01:12:23;0.10;99.90
52979;DHT22;63430;53.186;6.598;2023-01-20T01:14:26;0.10;99.90
52979;DHT22;63430;53.186;6.598;2023-01-20T01:16:28;0.10;99.90
52979;DHT22;63430;53.186;6.598;2023-01-20T01:18:31;0.20;99.90
52979;DHT22;63430;53.186;6.598;2023-01-20T01:20:33;0.20;99.90
52979;DHT22;63430;53.186;6.598;2023-01-20T01:22:36;0.20;99.90
52979;DHT22;63430;53.186;6.598;2023-01-20T01:24:45;0.20;99.90
52979;DHT22;63430;53.186;6.598;2023-01-20T01:26:47;0.20;99.90
52979;DHT22;63430;53.186;6.598;2023-01-20T01:28:50;0.20;99.90
52979;DHT22;63430;53.186;6.598;2023-01-20T01:30:52;0.20;99.90
52979;DHT22;63430;53.186;6.598;2023-01-20T01:32:55;0.20;99.90
52979;DHT22;63430;53.186;6.598;2023-01-20T01:34:57;0.20;99.90
52979;DHT22;63430;53.186;6.598;2023-01-20T01:37:00;0.90;99.90
52979;DHT22;63430;53.186;6.598;2023-01-20T01:39:08;0.20;99.90
52979;DHT22;63430;53.186;6.598;2023-01-20T01:41:14;0.20;99.90
52979;DHT22;63430;53.186;6.598;2023-01-20T01:43:23;0.20;99.90
52979;DHT22;63430;53.186;6.598;2023-01-20T01:45:28;0.20;99.90
52979;DHT22;63430;53.186;6.598;2023-01-20T01:47:44;0.20;99.90
52979;DHT22;63430;53.186;6.598;2023-01-20T01:49:48;0.20;99.90
52979;DHT22;63430;53.186;6.598;2023-01-20T01:51:56;0.20;99.90
52979;DHT22;63430;53.186;6.598;2023-01-20T01:54:06;0.20;99.90
52979;DHT22;63430;53.186;6.598;2023-01-20T01:56:13;0.30;99.90
52979;DHT22;63430;53.186;6.598;2023-01-20T01:58:18;0.20;99.90
52979;DHT22;63430;53.186;6.598;2023-01-20T02:00:24;0.30;99.90
52979;DHT22;63430;53.186;6.598;2023-01-20T02:02:26;0.30;99.90
52979;DHT22;63430;53.186;6.598;2023-01-20T02:04:29;0.30;99.90
52979;DHT22;63430;53.186;6.598;2023-01-20T02:06:37;0.30;99.90
52979;DHT22;63430;53.186;6.598;2023-01-20T02:08:41;0.30;99.90
52979;DHT22;63430;53.186;6.598;2023-01-20T02:10:44;0.30;99.90
52979;DHT22;63430;53.186;6.598;2023-01-20T02:12:49;0.30;99.90
52979;DHT22;63430;53.186;6.598;2023-01-20T02:14:54;0.30;99.90
52979;DHT22;63430;53.186;6.598;2023-01-20T02:17:00;0.30;99.90
52979;DHT22;63430;53.186;6.598;2023-01-20T02:19:17;0.20;99.90
52979;DHT22;63430;53.186;6.598;2023-01-20T02:21:49;0.20;99.90
52979;DHT22;63430;53.186;6.598;2023-01-20T02:26:46;0.20;99.90
52979;DHT22;63430;53.186;6.598;2023-01-20T02:34:16;0.30;99.90
52979;DHT22;63430;53.186;6.598;2023-01-20T02:36:27;0.30;99.90
52979;DHT22;63430;53.186;6.598;2023-01-20T02:38:38;0.30;99.90
52979;DHT22;63430;53.186;6.598;2023-01-20T02:40:51;0.30;99.90
52979;DHT22;63430;53.186;6.598;2023-01-20T02:43:00;0.30;99.90
52979;DHT22;63430;53.186;6.598;2023-01-20T02:45:13;0.40;99.90
52979;DHT22;63430;53.186;6.598;2023-01-20T02:47:19;0.40;99.90
52979;DHT22;63430;53.186;6.598;2023-01-20T02:49:33;0.40;99.90
52979;DHT22;63430;53.186;6.598;2023-01-20T02:51:43;0.40;99.90
52979;DHT22;63430;53.186;6.598;2023-01-20T02:53:49;0.40;99.90
52979;DHT22;63430;53.186;6.598;2023-01-20T02:55:53;1.50;99.90
52979;DHT22;63430;53.186;6.598;2023-01-20T02:58:01;0.50;99.90
52979;DHT22;63430;53.186;6.598;2023-01-20T03:00:10;0.50;99.90
52979;DHT22;63430;53.186;6.598;2023-01-20T03:02:18;0.50;99.90
52979;DHT22;63430;53.186;6.598;2023-01-20T03:06:47;0.60;99.90
52979;DHT22;63430;53.186;6.598;2023-01-20T03:08:51;0.60;99.90
52979;DHT22;63430;53.186;6.598;2023-01-20T03:10:58;0.60;99.90
52979;DHT22;63430;53.186;6.598;2023-01-20T03:13:07;0.60;99.90
52979;DHT22;63430;53.186;6.598;2023-01-20T03:15:11;0.60;99.90
52979;DHT22;63430;53.186;6.598;2023-01-20T03:17:14;0.60;99.90
52979;DHT22;63430;53.186;6.598;2023-01-20T03:19:18;0.60;99.90
52979;DHT22;63430;53.186;6.598;2023-01-20T03:21:22;0.60;99.90
52979;DHT22;63430;53.186;6.598;2023-01-20T03:23:32;0.60;99.90
52979;DHT22;63430;53.186;6.598;2023-01-20T03:25:36;0.60;99.90
52979;DHT22;63430;53.186;6.598;2023-01-20T03:27:40;0.60;99.90
52979;DHT22;63430;53.186;6.598;2023-01-20T03:29:43;1.00;99.90
52979;DHT22;63430;53.186;6.598;2023-01-20T03:31:47;0.70;99.90
52979;DHT22;63430;53.186;6.598;2023-01-20T03:33:53;0.60;99.90
52979;DHT22;63430;53.186;6.598;2023-01-20T03:35:56;0.60;99.90
52979;DHT22;63430;53.186;6.598;2023-01-20T03:37:59;0.60;99.90
52979;DHT22;63430;53.186;6.598;2023-01-20T03:40:05;0.70;99.90
52979;DHT22;63430;53.186;6.598;2023-01-20T03:42:11;0.70;99.90
52979;DHT22;63430;53.186;6.598;2023-01-20T03:44:20;0.70;99.90
52979;DHT22;63430;53.186;6.598;2023-01-20T03:46:32;0.70;99.90
52979;DHT22;63430;53.186;6.598;2023-01-20T03:48:40;0.70;99.90
52979;DHT22;63430;53.186;6.598;2023-01-20T03:50:53;0.70;99.90
52979;DHT22;63430;53.186;6.598;2023-01-20T03:53:03;0.70;99.90
52979;DHT22;63430;53.186;6.598;2023-01-20T03:55:13;1.50;99.90
52979;DHT22;63430;53.186;6.598;2023-01-20T03:57:18;0.80;99.90
52979;DHT22;63430;53.186;6.598;2023-01-20T03:59:22;0.70;99.90
52979;DHT22;63430;53.186;6.598;2023-01-20T04:01:31;0.70;99.90
52979;DHT22;63430;53.186;6.598;2023-01-20T04:03:38;0.80;99.90
52979;DHT22;63430;53.186;6.598;2023-01-20T04:05:42;0.80;99.90
52979;DHT22;63430;53.186;6.598;2023-01-20T04:07:45;0.70;99.90
52979;DHT22;63430;53.186;6.598;2023-01-20T04:09:51;0.70;99.90
52979;DHT22;63430;53.186;6.598;2023-01-20T04:11:58;0.70;99.90
52979;DHT22;63430;53.186;6.598;2023-01-20T04:14:02;0.70;99.90
52979;DHT22;63430;53.186;6.598;2023-01-20T04:16:09;1.00;99.90
52979;DHT22;63430;53.186;6.598;2023-01-20T04:18:15;1.80;99.90
52979;DHT22;63430;53.186;6.598;2023-01-20T04:20:18;0.70;99.90
52979;DHT22;63430;53.186;6.598;2023-01-20T04:22:25;0.60;99.90
52979;DHT22;63430;53.186;6.598;2023-01-20T04:24:33;0.60;99.90
52979;DHT22;63430;53.186;6.598;2023-01-20T04:26:37;0.70;99.90
52979;DHT22;63430;53.186;6.598;2023-01-20T04:28:43;0.60;99.90
52979;DHT22;63430;53.186;6.598;2023-01-20T04:30:50;0.60;99.90
52979;DHT22;63430;53.186;6.598;2023-01-20T04:32:53;0.60;99.90
52979;DHT22;63430;53.186;6.598;2023-01-20T04:34:56;0.60;99.90
52979;DHT22;63430;53.186;6.598;2023-01-20T04:36:58;0.60;99.90
52979;DHT22;63430;53.186;6.598;2023-01-20T04:39:01;0.60;99.90
52979;DHT22;63430;53.186;6.598;2023-01-20T04:41:09;0.70;99.90
52979;DHT22;63430;53.186;6.598;2023-01-20T04:43:12;0.60;99.90
52979;DHT22;63430;53.186;6.598;2023-01-20T04:45:18;0.60;99.90
52979;DHT22;63430;53.186;6.598;2023-01-20T04:47:20;0.60;99.90
52979;DHT22;63430;53.186;6.598;2023-01-20T04:49:23;0.60;99.90
52979;DHT22;63430;53.186;6.598;2023-01-20T04:51:26;0.60;99.90
52979;DHT22;63430;53.186;6.598;2023-01-20T04:53:29;0.60;99.90
52979;DHT22;63430;53.186;6.598;2023-01-20T04:55:31;0.60;99.90
52979;DHT22;63430;53.186;6.598;2023-01-20T04:57:34;0.60;99.90
52979;DHT22;63430;53.186;6.598;2023-01-20T04:59:37;0.60;99.90
52979;DHT22;63430;53.186;6.598;2023-01-20T05:01:42;0.60;99.90
52979;DHT22;63430;53.186;6.598;2023-01-20T05:03:45;0.50;99.90
52979;DHT22;63430;53.186;6.598;2023-01-20T05:05:51;0.60;99.90
52979;DHT22;63430;53.186;6.598;2023-01-20T05:07:54;0.50;99.90
52979;DHT22;63430;53.186;6.598;2023-01-20T05:09:58;0.50;99.90
52979;DHT22;63430;53.186;6.598;2023-01-20T05:12:00;0.50;99.90
52979;DHT22;63430;53.186;6.598;2023-01-20T05:14:03;1.20;99.90
52979;DHT22;63430;53.186;6.598;2023-01-20T05:16:06;1.00;99.90
52979;DHT22;63430;53.186;6.598;2023-01-20T05:18:11;0.50;99.90
52979;DHT22;63430;53.186;6.598;2023-01-20T05:20:18;0.50;99.90
52979;DHT22;63430;53.186;6.598;2023-01-20T05:22:23;0.50;99.90
52979;DHT22;63430;53.186;6.598;2023-01-20T05:24:26;0.50;99.90
52979;DHT22;63430;53.186;6.598;2023-01-20T05:26:28;0.40;99.90
52979;DHT22;63430;53.186;6.598;2023-01-20T05:28:31;0.50;99.90
52979;DHT22;63430;53.186;6.598;2023-01-20T05:30:34;0.50;99.90
52979;DHT22;63430;53.186;6.598;2023-01-20T05:32:36;0.40;99.90
52979;DHT22;63430;53.186;6.598;2023-01-20T05:34:41;0.40;99.90
52979;DHT22;63430;53.186;6.598;2023-01-20T05:36:44;0.50;99.90
52979;DHT22;63430;53.186;6.598;2023-01-20T05:38:46;0.40;99.90
52979;DHT22;63430;53.186;6.598;2023-01-20T05:40:49;0.40;99.90
52979;DHT22;63430;53.186;6.598;2023-01-20T05:42:51;0.50;99.90
52979;DHT22;63430;53.186;6.598;2023-01-20T05:44:59;0.50;99.90
52979;DHT22;63430;53.186;6.598;2023-01-20T05:47:05;0.40;99.90
52979;DHT22;63430;53.186;6.598;2023-01-20T05:49:09;0.40;99.90
52979;DHT22;63430;53.186;6.598;2023-01-20T05:51:16;0.40;99.90
52979;DHT22;63430;53.186;6.598;2023-01-20T05:53:19;0.20;99.90
52979;DHT22;63430;53.186;6.598;2023-01-20T05:55:22;0.40;99.90
52979;DHT22;63430;53.186;6.598;2023-01-20T05:57:26;0.40;99.90
52979;DHT22;63430;53.186;6.598;2023-01-20T05:59:28;0.50;99.90
52979;DHT22;63430;53.186;6.598;2023-01-20T06:01:31;0.50;99.90
52979;DHT22;63430;53.186;6.598;2023-01-20T06:03:34;0.40;99.90
52979;DHT22;63430;53.186;6.598;2023-01-20T06:05:36;0.50;99.90
52979;DHT22;63430;53.186;6.598;2023-01-20T06:07:41;0.40;99.90
52979;DHT22;63430;53.186;6.598;2023-01-20T06:09:44;0.50;99.90
52979;DHT22;63430;53.186;6.598;2023-01-20T06:11:47;0.50;99.90
52979;DHT22;63430;53.186;6.598;2023-01-20T06:13:50;0.50;99.90
52979;DHT22;63430;53.186;6.598;2023-01-20T06:15:56;0.50;99.90
52979;DHT22;63430;53.186;6.598;2023-01-20T06:17:59;0.50;99.90
52979;DHT22;63430;53.186;6.598;2023-01-20T06:20:21;0.40;99.90
52979;DHT22;63430;53.186;6.598;2023-01-20T06:22:24;0.50;99.90
52979;DHT22;63430;53.186;6.598;2023-01-20T06:24:31;0.50;99.90
52979;DHT22;63430;53.186;6.598;2023-01-20T06:26:34;0.50;99.90
52979;DHT22;63430;53.186;6.598;2023-01-20T06:28:36;0.50;99.90
52979;DHT22;63430;53.186;6.598;2023-01-20T06:30:39;0.50;99.90
52979;DHT22;63430;53.186;6.598;2023-01-20T06:32:45;0.50;99.90
52979;DHT22;63430;53.186;6.598;2023-01-20T06:34:51;0.50;99.90
52979;DHT22;63430;53.186;6.598;2023-01-20T06:36:54;0.50;99.90
52979;DHT22;63430;53.186;6.598;2023-01-20T06:38:57;0.50;99.90
52979;DHT22;63430;53.186;6.598;2023-01-20T06:41:04;0.50;99.90
52979;DHT22;63430;53.186;6.598;2023-01-20T06:43:07;0.50;99.90
52979;DHT22;63430;53.186;6.598;2023-01-20T06:45:10;0.50;99.90
52979;DHT22;63430;53.186;6.598;2023-01-20T06:47:12;0.50;99.90
52979;DHT22;63430;53.186;6.598;2023-01-20T06:49:15;0.50;99.90
52979;DHT22;63430;53.186;6.598;2023-01-20T06:51:19;0.50;99.90
52979;DHT22;63430;53.186;6.598;2023-01-20T06:53:21;0.50;99.90
52979;DHT22;63430;53.186;6.598;2023-01-20T06:55:24;0.50;99.90
52979;DHT22;63430;53.186;6.598;2023-01-20T06:57:29;0.60;99.90
52979;DHT22;63430;53.186;6.598;2023-01-20T06:59:32;0.60;99.90
52979;DHT22;63430;53.186;6.598;2023-01-20T07:01:42;0.60;99.90
52979;DHT22;63430;53.186;6.598;2023-01-20T07:03:44;0.50;99.90
52979;DHT22;63430;53.186;6.598;2023-01-20T07:05:53;0.50;99.90
52979;DHT22;63430;53.186;6.598;2023-01-20T07:07:58;0.50;99.90
52979;DHT22;63430;53.186;6.598;2023-01-20T07:10:00;0.60;99.90
52979;DHT22;63430;53.186;6.598;2023-01-20T07:12:03;0.60;99.90
52979;DHT22;63430;53.186;6.598;2023-01-20T07:14:09;0.50;99.90
52979;DHT22;63430;53.186;6.598;2023-01-20T07:16:20;0.50;99.90
52979;DHT22;63430;53.186;6.598;2023-01-20T07:18:23;0.70;99.90
52979;DHT22;63430;53.186;6.598;2023-01-20T07:20:25;0.60;99.90
52979;DHT22;63430;53.186;6.598;2023-01-20T07:22:27;0.50;99.90
52979;DHT22;63430;53.186;6.598;2023-01-20T07:24:30;0.60;99.90
52979;DHT22;63430;53.186;6.598;2023-01-20T07:26:32;0.60;99.90
52979;DHT22;63430;53.186;6.598;2023-01-20T07:28:36;0.50;99.90
52979;DHT22;63430;53.186;6.598;2023-01-20T07:30:41;0.60;99.90
52979;DHT22;63430;53.186;6.598;2023-01-20T07:32:44;1.40;99.90
52979;DHT22;63430;53.186;6.598;2023-01-20T07:34:47;0.60;99.90
52979;DHT22;63430;53.186;6.598;2023-01-20T07:36:51;0.60;99.90
52979;DHT22;63430;53.186;6.598;2023-01-20T07:38:54;0.60;99.90
52979;DHT22;63430;53.186;6.598;2023-01-20T07:40:57;0.70;99.90
52979;DHT22;63430;53.186;6.598;2023-01-20T07:43:02;0.60;99.90
52979;DHT22;63430;53.186;6.598;2023-01-20T07:45:05;0.60;99.90
52979;DHT22;63430;53.186;6.598;2023-01-20T07:47:10;0.50;99.90
52979;DHT22;63430;53.186;6.598;2023-01-20T07:49:13;0.60;99.90
52979;DHT22;63430;53.186;6.598;2023-01-20T07:51:16;0.60;99.90
52979;DHT22;63430;53.186;6.598;2023-01-20T07:53:20;0.60;99.90
52979;DHT22;63430;53.186;6.598;2023-01-20T07:55:22;0.60;99.90
52979;DHT22;63430;53.186;6.598;2023-01-20T07:57:31;0.60;99.90
52979;DHT22;63430;53.186;6.598;2023-01-20T07:59:55;0.60;99.90
52979;DHT22;63430;53.186;6.598;2023-01-20T08:01:58;0.60;99.90
52979;DHT22;63430;53.186;6.598;2023-01-20T08:04:06;0.90;99.90
52979;DHT22;63430;53.186;6.598;2023-01-20T08:06:12;0.60;99.90
52979;DHT22;63430;53.186;6.598;2023-01-20T08:08:32;0.60;99.90
52979;DHT22;63430;53.186;6.598;2023-01-20T08:10:35;0.90;99.90
52979;DHT22;63430;53.186;6.598;2023-01-20T08:12:38;0.70;99.90
52979;DHT22;63430;53.186;6.598;2023-01-20T08:14:40;0.70;99.90
52979;DHT22;63430;53.186;6.598;2023-01-20T08:16:43;0.70;99.90
52979;DHT22;63430;53.186;6.598;2023-01-20T08:18:46;0.70;99.90
52979;DHT22;63430;53.186;6.598;2023-01-20T08:20:54;0.70;99.90
52979;DHT22;63430;53.186;6.598;2023-01-20T08:22:56;0.70;99.90
52979;DHT22;63430;53.186;6.598;2023-01-20T08:24:58;0.70;99.90
52979;DHT22;63430;53.186;6.598;2023-01-20T08:27:01;1.10;99.90
52979;DHT22;63430;53.186;6.598;2023-01-20T08:29:06;0.80;99.90
52979;DHT22;63430;53.186;6.598;2023-01-20T08:31:11;0.90;99.90
52979;DHT22;63430;53.186;6.598;2023-01-20T08:33:14;0.80;99.90
52979;DHT22;63430;53.186;6.598;2023-01-20T08:35:16;0.80;99.90
52979;DHT22;63430;53.186;6.598;2023-01-20T08:37:22;0.80;99.90
52979;DHT22;63430;53.186;6.598;2023-01-20T08:39:25;0.90;99.90
52979;DHT22;63430;53.186;6.598;2023-01-20T08:41:29;1.10;99.90
52979;DHT22;63430;53.186;6.598;2023-01-20T08:43:32;0.90;99.90
52979;DHT22;63430;53.186;6.598;2023-01-20T08:45:35;0.90;99.90
52979;DHT22;63430;53.186;6.598;2023-01-20T08:47:41;0.90;99.90
52979;DHT22;63430;53.186;6.598;2023-01-20T08:49:56;0.90;99.90
52979;DHT22;63430;53.186;6.598;2023-01-20T08:51:58;0.80;99.90
52979;DHT22;63430;53.186;6.598;2023-01-20T08:54:04;0.90;99.90
52979;DHT22;63430;53.186;6.598;2023-01-20T08:56:07;0.90;99.90
52979;DHT22;63430;53.186;6.598;2023-01-20T08:58:11;0.90;99.90
52979;DHT22;63430;53.186;6.598;2023-01-20T09:00:15;1.00;99.90
52979;DHT22;63430;53.186;6.598;2023-01-20T09:02:18;1.00;99.90
52979;DHT22;63430;53.186;6.598;2023-01-20T09:04:21;1.00;99.90
52979;DHT22;63430;53.186;6.598;2023-01-20T09:06:24;1.00;99.90
52979;DHT22;63430;53.186;6.598;2023-01-20T09:08:27;1.10;99.90
52979;DHT22;63430;53.186;6.598;2023-01-20T09:10:34;1.10;99.90
52979;DHT22;63430;53.186;6.598;2023-01-20T09:12:36;1.10;99.90
52979;DHT22;63430;53.186;6.598;2023-01-20T09:14:39;1.40;99.90
52979;DHT22;63430;53.186;6.598;2023-01-20T09:16:42;1.20;99.90
52979;DHT22;63430;53.186;6.598;2023-01-20T09:18:45;1.20;99.90
52979;DHT22;63430;53.186;6.598;2023-01-20T09:20:48;1.20;99.90
52979;DHT22;63430;53.186;6.598;2023-01-20T09:22:50;1.20;99.90
52979;DHT22;63430;53.186;6.598;2023-01-20T09:24:55;1.20;99.90
52979;DHT22;63430;53.186;6.598;2023-01-20T09:27:00;1.20;99.90
52979;DHT22;63430;53.186;6.598;2023-01-20T09:29:03;1.20;99.90
52979;DHT22;63430;53.186;6.598;2023-01-20T09:31:18;1.20;99.90
52979;DHT22;63430;53.186;6.598;2023-01-20T09:33:21;1.30;99.90
52979;DHT22;63430;53.186;6.598;2023-01-20T09:35:24;1.30;99.90
52979;DHT22;63430;53.186;6.598;2023-01-20T09:37:26;1.20;99.90
52979;DHT22;63430;53.186;6.598;2023-01-20T09:39:47;1.30;99.90
52979;DHT22;63430;53.186;6.598;2023-01-20T09:42:22;1.30;99.90
52979;DHT22;63430;53.186;6.598;2023-01-20T09:44:48;1.30;99.90
52979;DHT22;63430;53.186;6.598;2023-01-20T09:47:01;1.30;99.90
52979;DHT22;63430;53.186;6.598;2023-01-20T09:49:31;1.30;99.90
52979;DHT22;63430;53.186;6.598;2023-01-20T09:52:03;1.30;99.90
52979;DHT22;63430;53.186;6.598;2023-01-20T09:54:28;1.30;99.90
52979;DHT22;63430;53.186;6.598;2023-01-20T09:56:39;1.40;99.90
52979;DHT22;63430;53.186;6.598;2023-01-20T09:58:50;2.10;99.90
52979;DHT22;63430;53.186;6.598;2023-01-20T10:01:00;1.40;99.90
52979;DHT22;63430;53.186;6.598;2023-01-20T10:03:12;1.40;99.90
52979;DHT22;63430;53.186;6.598;2023-01-20T10:05:19;1.40;99.90
52979;DHT22;63430;53.186;6.598;2023-01-20T10:07:27;1.40;99.90
52979;DHT22;63430;53.186;6.598;2023-01-20T10:09:35;1.40;99.90
52979;DHT22;63430;53.186;6.598;2023-01-20T10:11:40;1.40;99.90
52979;DHT22;63430;53.186;6.598;2023-01-20T10:13:49;1.40;99.90
52979;DHT22;63430;53.186;6.598;2023-01-20T10:15:54;1.40;99.90
52979;DHT22;63430;53.186;6.598;2023-01-20T10:18:02;1.50;99.90
52979;DHT22;63430;53.186;6.598;2023-01-20T10:20:10;1.50;99.90
52979;DHT22;63430;53.186;6.598;2023-01-20T10:22:18;1.40;99.90
52979;DHT22;63430;53.186;6.598;2023-01-20T10:24:27;1.50;99.90
52979;DHT22;63430;53.186;6.598;2023-01-20T10:26:35;1.50;99.90
52979;DHT22;63430;53.186;6.598;2023-01-20T10:28:48;1.40;99.90
52979;DHT22;63430;53.186;6.598;2023-01-20T10:30:52;1.50;99.90
52979;DHT22;63430;53.186;6.598;2023-01-20T10:33:01;1.50;99.90
52979;DHT22;63430;53.186;6.598;2023-01-20T10:35:11;1.50;99.90
52979;DHT22;63430;53.186;6.598;2023-01-20T10:37:20;1.50;99.90
52979;DHT22;63430;53.186;6.598;2023-01-20T10:39:29;1.50;99.90
52979;DHT22;63430;53.186;6.598;2023-01-20T10:41:38;1.50;99.90
52979;DHT22;63430;53.186;6.598;2023-01-20T10:43:43;1.50;99.90
52979;DHT22;63430;53.186;6.598;2023-01-20T10:46:00;1.50;99.90
52979;DHT22;63430;53.186;6.598;2023-01-20T10:48:17;1.50;99.90
52979;DHT22;63430;53.186;6.598;2023-01-20T10:50:34;2.40;99.90
52979;DHT22;63430;53.186;6.598;2023-01-20T10:52:53;1.50;99.90
52979;DHT22;63430;53.186;6.598;2023-01-20T10:55:05;1.50;99.90
52979;DHT22;63430;53.186;6.598;2023-01-20T10:57:14;1.50;99.90
52979;DHT22;63430;53.186;6.598;2023-01-20T10:59:20;1.50;99.90
52979;DHT22;63430;53.186;6.598;2023-01-20T11:01:27;1.50;99.90
52979;DHT22;63430;53.186;6.598;2023-01-20T11:03:34;1.50;99.90
52979;DHT22;63430;53.186;6.598;2023-01-20T11:05:46;1.50;99.90
52979;DHT22;63430;53.186;6.598;2023-01-20T11:07:50;1.50;99.90
52979;DHT22;63430;53.186;6.598;2023-01-20T11:09:53;1.60;99.90
52979;DHT22;63430;53.186;6.598;2023-01-20T11:11:56;1.60;99.90
52979;DHT22;63430;53.186;6.598;2023-01-20T11:14:00;1.60;99.90
52979;DHT22;63430;53.186;6.598;2023-01-20T11:16:11;1.60;99.90
52979;DHT22;63430;53.186;6.598;2023-01-20T11:18:23;1.60;99.90
52979;DHT22;63430;53.186;6.598;2023-01-20T11:20:29;1.60;99.90
52979;DHT22;63430;53.186;6.598;2023-01-20T11:22:35;2.50;99.90
52979;DHT22;63430;53.186;6.598;2023-01-20T11:24:41;1.60;99.90
52979;DHT22;63430;53.186;6.598;2023-01-20T11:26:44;1.60;99.90
52979;DHT22;63430;53.186;6.598;2023-01-20T11:28:51;1.60;99.90
52979;DHT22;63430;53.186;6.598;2023-01-20T11:30:55;1.60;99.90
52979;DHT22;63430;53.186;6.598;2023-01-20T11:33:16;1.60;99.90
52979;DHT22;63430;53.186;6.598;2023-01-20T11:35:23;1.60;99.90
52979;DHT22;63430;53.186;6.598;2023-01-20T11:37:34;1.50;99.90
52979;DHT22;63430;53.186;6.598;2023-01-20T11:39:42;1.50;99.90
52979;DHT22;63430;53.186;6.598;2023-01-20T11:41:45;1.60;99.90
52979;DHT22;63430;53.186;6.598;2023-01-20T11:43:48;2.60;99.90
52979;DHT22;63430;53.186;6.598;2023-01-20T11:45:52;1.60;99.90
52979;DHT22;63430;53.186;6.598;2023-01-20T11:48:17;1.60;99.90
52979;DHT22;63430;53.186;6.598;2023-01-20T11:50:29;1.60;99.90
52979;DHT22;63430;53.186;6.598;2023-01-20T11:52:34;1.90;99.90
52979;DHT22;63430;53.186;6.598;2023-01-20T11:54:36;1.70;99.90
52979;DHT22;63430;53.186;6.598;2023-01-20T11:56:41;1.70;99.90
52979;DHT22;63430;53.186;6.598;2023-01-20T11:58:49;1.70;99.90
52979;DHT22;63430;53.186;6.598;2023-01-20T12:00:59;2.70;99.90
52979;DHT22;63430;53.186;6.598;2023-01-20T12:05:48;1.70;99.90
52979;DHT22;63430;53.186;6.598;2023-01-20T12:07:56;1.70;99.90
52979;DHT22;63430;53.186;6.598;2023-01-20T12:10:02;1.70;99.90
52979;DHT22;63430;53.186;6.598;2023-01-20T12:12:14;1.70;99.90
52979;DHT22;63430;53.186;6.598;2023-01-20T12:14:23;1.70;99.90
52979;DHT22;63430;53.186;6.598;2023-01-20T12:16:28;1.80;99.90
52979;DHT22;63430;53.186;6.598;2023-01-20T12:18:34;1.70;99.90
52979;DHT22;63430;53.186;6.598;2023-01-20T12:20:44;1.80;99.90
52979;DHT22;63430;53.186;6.598;2023-01-20T12:23:13;1.80;99.90
52979;DHT22;63430;53.186;6.598;2023-01-20T12:25:24;1.50;99.90
52979;DHT22;63430;53.186;6.598;2023-01-20T12:27:29;1.80;99.90
52979;DHT22;63430;53.186;6.598;2023-01-20T12:29:37;1.80;99.90
52979;DHT22;63430;53.186;6.598;2023-01-20T12:31:46;1.80;99.90
52979;DHT22;63430;53.186;6.598;2023-01-20T12:33:52;1.80;99.90
52979;DHT22;63430;53.186;6.598;2023-01-20T12:36:23;1.80;99.90
52979;DHT22;63430;53.186;6.598;2023-01-20T12:38:34;1.80;99.90
52979;DHT22;63430;53.186;6.598;2023-01-20T12:40:47;1.80;99.90
52979;DHT22;63430;53.186;6.598;2023-01-20T12:43:07;1.80;99.90
52979;DHT22;63430;53.186;6.598;2023-01-20T12:45:22;1.80;99.90
52979;DHT22;63430;53.186;6.598;2023-01-20T12:47:40;1.80;99.90
52979;DHT22;63430;53.186;6.598;2023-01-20T12:50:04;1.70;99.90
52979;DHT22;63430;53.186;6.598;2023-01-20T12:52:39;1.80;99.90
52979;DHT22;63430;53.186;6.598;2023-01-20T12:57:24;1.70;99.90
52979;DHT22;63430;53.186;6.598;2023-01-20T12:59:39;1.70;99.90
52979;DHT22;63430;53.186;6.598;2023-01-20T13:01:53;1.70;99.90
52979;DHT22;63430;53.186;6.598;2023-01-20T13:06:48;1.70;99.90
52979;DHT22;63430;53.186;6.598;2023-01-20T13:09:07;1.70;99.90
52979;DHT22;63430;53.186;6.598;2023-01-20T13:11:18;1.70;99.90
52979;DHT22;63430;53.186;6.598;2023-01-20T13:13:32;1.70;99.90
52979;DHT22;63430;53.186;6.598;2023-01-20T13:16:00;1.70;99.90
52979;DHT22;63430;53.186;6.598;2023-01-20T13:18:16;1.70;99.90
52979;DHT22;63430;53.186;6.598;2023-01-20T13:20:22;1.70;99.90
52979;DHT22;63430;53.186;6.598;2023-01-20T13:22:25;1.70;99.90
52979;DHT22;63430;53.186;6.598;2023-01-20T13:24:30;1.80;99.90
52979;DHT22;63430;53.186;6.598;2023-01-20T13:26:35;1.80;99.90
52979;DHT22;63430;53.186;6.598;2023-01-20T13:28:37;1.80;99.90
52979;DHT22;63430;53.186;6.598;2023-01-20T13:30:51;1.80;99.90
52979;DHT22;63430;53.186;6.598;2023-01-20T13:33:02;1.80;99.90
52979;DHT22;63430;53.186;6.598;2023-01-20T13:35:40;1.70;99.90
52979;DHT22;63430;53.186;6.598;2023-01-20T13:37:47;1.80;99.90
52979;DHT22;63430;53.186;6.598;2023-01-20T13:39:53;1.80;99.90
52979;DHT22;63430;53.186;6.598;2023-01-20T13:41:56;1.80;99.90
52979;DHT22;63430;53.186;6.598;2023-01-20T13:43:59;2.80;99.90
52979;DHT22;63430;53.186;6.598;2023-01-20T13:48:35;1.70;99.90
52979;DHT22;63430;53.186;6.598;2023-01-20T13:50:39;1.80;99.90
52979;DHT22;63430;53.186;6.598;2023-01-20T13:53:13;1.80;99.90